Wichita, KS (67209)

10:02 PM CST on January 21, 2017 (GMT -0600)
Decker Electric | | Change Station

Elev 1312 ft 37.67 °N, 97.39 °W | Updated 4 seconds ago

Overcast
Overcast
48.6 °F
Feels Like 46 °F
N
7.0
Wind Variable Wind from East
Gusts 13.0 mph

Today
High -- | Low -- °F
--% Chance of Precip.
Yesterday
High -- | Low -- °F
Precip. -- in
Pressure 29.44 in
Visibility 10.0 miles
Clouds Overcast 6000 ft
Windchill 46 °F
Dew Point 41 °F
Humidity 76%
Rainfall in
Snow Depth Not available.
7:40 AM 5:41 PM
Waning Crescent, 30% visible
METAR KICT 220353Z 06008KT 10SM OVC060 09/04 A2944 RMK AO2 SLP970 T00890044 $
Pressure 29.44 in
Visibility 10.0 miles
Clouds Overcast 6000 ft
Windchill 46 °F
Dew Point 41 °F
Humidity 76%
Rainfall in
Snow Depth Not available.
7:40 AM 5:41 PM
Waning Crescent, 30% visible
METAR KICT 220353Z 06008KT 10SM OVC060 09/04 A2944 RMK AO2 SLP970 T00890044 $

Get Your Daily Forecast Email!

Thanks for signing up!

Be on the lookout for a verification email in your inbox.

You'll start receiving the daily forecast at 8 AM.

×

10-Day Weather Forecast

Almanac

Astronomy

Jan. 21, 2017 Rise Set
Actual Time
Civil Twilight
Nautical Twilight
Astronomical Twilight
Moon
Length of Visible Light
Length of Day
Tomorrow will be .
, % of the Moon is Illuminated

Today's Extremes

State Highs State Lows

Community

WunderPhotos

Upload Photos

1,962,540 photos uploaded!

WunderBlog® & News

Nearby

Air Quality

  Air Quality AQ Index Pollutant
Not available.

Snow Depth

Station Depth Elevation

Earthquake Activity

City Distance Mag. Time & Date
Minimum magnitude displayed is 2.5.

Coastal Water Temperatures

Place Temperature

Stations

Nearby Weather Stations

Station Location Temp. Windchill Dew Point Humidity Wind Precip. Elev Updated Type
                   

Watches & Warnings

There are currently no watches in effect.